createdAt,value
2023-05-10T00:00:57.263Z,23.95
2023-05-10T00:03:24.544Z,23.35
2023-05-10T00:05:51.841Z,22.50
2023-05-10T00:08:19.089Z,23.15
2023-05-10T00:10:46.568Z,24.35
2023-05-10T00:13:13.827Z,24.77
2023-05-10T00:15:41.167Z,23.63
2023-05-10T00:18:08.602Z,24.37
2023-05-10T00:20:35.388Z,23.13
2023-05-10T00:23:02.687Z,25.05
2023-05-10T00:25:30.168Z,20.10
2023-05-10T00:27:58.169Z,22.85
2023-05-10T00:30:25.437Z,24.67
2023-05-10T00:32:52.859Z,24.23
2023-05-10T00:35:20.368Z,25.48
2023-05-10T00:37:48.866Z,21.65
2023-05-10T00:40:16.088Z,22.77
2023-05-10T00:42:47.264Z,23.10
2023-05-10T00:45:14.556Z,21.88
2023-05-10T00:47:41.915Z,22.88
2023-05-10T00:50:10.325Z,20.58
2023-05-10T00:52:37.594Z,21.23
2023-05-10T00:55:05.729Z,24.07
2023-05-10T00:57:33.188Z,20.88
2023-05-10T01:00:00.622Z,23.50
2023-05-10T01:02:28.463Z,23.08
2023-05-10T01:04:57.477Z,21.70
2023-05-10T01:07:24.771Z,23.53
2023-05-10T01:09:51.610Z,22.58
2023-05-10T01:12:18.878Z,22.98
2023-05-10T01:14:46.387Z,19.73
2023-05-10T01:17:14.298Z,22.13
2023-05-10T01:19:41.981Z,20.87
2023-05-10T01:22:52.617Z,22.67
2023-05-10T01:25:30.415Z,23.23
2023-05-10T01:27:57.688Z,22.33
2023-05-10T01:30:45.477Z,22.27
2023-05-10T01:33:12.766Z,22.10
2023-05-10T01:36:19.345Z,22.42
2023-05-10T01:39:00.029Z,24.05
2023-05-10T01:41:40.715Z,22.77
2023-05-10T01:44:17.300Z,23.95
2023-05-10T01:46:44.665Z,24.40
2023-05-10T01:49:35.729Z,23.63
2023-05-10T01:52:20.499Z,23.40
2023-05-10T01:55:16.130Z,22.45
2023-05-10T01:57:45.660Z,21.35
2023-05-10T02:00:14.481Z,22.30
2023-05-10T02:02:46.143Z,24.55
2023-05-10T02:05:15.546Z,24.77
2023-05-10T02:07:43.067Z,23.55
2023-05-10T02:10:12.450Z,24.27
2023-05-10T02:12:43.243Z,25.30
2023-05-10T02:15:12.562Z,22.27
2023-05-10T02:17:40.360Z,26.27
2023-05-10T02:20:08.773Z,25.50
2023-05-10T02:22:36.868Z,26.35
2023-05-10T02:25:05.107Z,26.50
2023-05-10T02:27:32.688Z,28.55
2023-05-10T02:30:00.421Z,28.10
2023-05-10T02:32:28.832Z,30.52
2023-05-10T02:34:57.950Z,29.88
2023-05-10T02:37:26.352Z,30.10
2023-05-10T02:39:56.193Z,30.20
2023-05-10T02:42:28.901Z,30.38
2023-05-10T02:45:02.028Z,29.58
2023-05-10T02:47:30.171Z,31.10
2023-05-10T02:49:57.560Z,29.93
2023-05-10T02:52:35.813Z,26.52
2023-05-10T02:55:05.878Z,28.38
2023-05-10T02:57:39.786Z,31.25
2023-05-10T03:00:07.381Z,29.85
2023-05-10T03:02:35.279Z,29.80
2023-05-10T03:05:02.528Z,29.65
2023-05-10T03:07:29.404Z,28.45
2023-05-10T03:09:56.790Z,29.05
2023-05-10T03:12:25.151Z,28.40
2023-05-10T03:14:52.405Z,28.80
2023-05-10T03:17:31.689Z,29.85
2023-05-10T03:20:05.301Z,28.70
2023-05-10T03:22:37.945Z,27.85
2023-05-10T03:25:11.790Z,27.02
2023-05-10T03:27:44.898Z,26.53
2023-05-10T03:30:13.526Z,26.58
2023-05-10T03:32:40.979Z,25.73
2023-05-10T03:35:13.027Z,25.20
2023-05-10T03:37:40.537Z,25.17
2023-05-10T03:40:08.351Z,25.93
2023-05-10T03:42:37.357Z,23.77
2023-05-10T03:45:04.650Z,22.90
2023-05-10T03:47:31.722Z,24.25
2023-05-10T03:49:59.580Z,23.25
2023-05-10T03:52:26.616Z,24.10
2023-05-10T03:54:53.498Z,24.30
2023-05-10T03:57:20.748Z,24.70
2023-05-10T03:59:47.998Z,23.02
2023-05-10T04:02:15.536Z,25.98
2023-05-10T04:04:42.995Z,25.27
2023-05-10T04:07:11.376Z,26.30
2023-05-10T04:09:38.206Z,24.88
2023-05-10T04:12:05.568Z,25.17
2023-05-10T04:14:32.970Z,25.55
2023-05-10T04:17:00.455Z,27.23
2023-05-10T04:19:31.195Z,25.48
2023-05-10T04:21:58.798Z,27.23
2023-05-10T04:24:26.491Z,26.08
2023-05-10T04:26:54.694Z,25.95
2023-05-10T04:29:23.353Z,27.43
2023-05-10T04:31:50.531Z,25.70
2023-05-10T04:34:17.834Z,29.25
2023-05-10T04:36:45.210Z,28.75
2023-05-10T04:39:12.413Z,28.02
2023-05-10T04:41:39.820Z,30.77
2023-05-10T04:44:07.242Z,25.27
2023-05-10T04:46:34.179Z,29.63
2023-05-10T04:49:01.066Z,25.00
2023-05-10T04:51:28.476Z,27.67
2023-05-10T04:54:05.345Z,33.67
2023-05-10T04:56:34.342Z,28.80
2023-05-10T04:59:01.802Z,32.35
2023-05-10T05:01:29.230Z,31.67
2023-05-10T05:03:56.746Z,33.83
2023-05-10T05:06:25.768Z,29.20
2023-05-10T05:08:53.167Z,28.55
2023-05-10T05:11:20.695Z,32.58
2023-05-10T05:13:48.104Z,31.95
2023-05-10T05:16:15.313Z,33.75
2023-05-10T05:18:42.630Z,31.13
2023-05-10T05:21:19.552Z,29.98
2023-05-10T05:23:47.205Z,32.17
2023-05-10T05:26:14.047Z,30.40
2023-05-10T05:28:40.944Z,30.02
2023-05-10T05:31:08.994Z,33.67
2023-05-10T05:33:36.440Z,30.63
2023-05-10T05:36:05.215Z,31.70
2023-05-10T05:38:32.736Z,29.50
2023-05-10T05:40:59.983Z,27.50
2023-05-10T05:43:27.238Z,30.87
2023-05-10T05:45:55.009Z,26.17
2023-05-10T05:48:22.439Z,27.90
2023-05-10T05:50:49.651Z,28.40
2023-05-10T05:53:16.966Z,28.55
2023-05-10T05:56:01.884Z,25.50
2023-05-10T05:58:29.111Z,24.70
2023-05-10T06:00:56.562Z,21.15
2023-05-10T06:03:23.873Z,22.52
2023-05-10T06:05:51.217Z,23.70
2023-05-10T06:08:18.509Z,26.23
2023-05-10T06:10:46.380Z,25.67
2023-05-10T06:13:13.489Z,25.00
2023-05-10T06:15:41.063Z,26.27
2023-05-10T06:18:08.405Z,27.33
2023-05-10T06:20:35.709Z,25.23
2023-05-10T06:23:03.169Z,22.08
2023-05-10T06:25:30.466Z,26.23
2023-05-10T06:27:58.917Z,24.70
2023-05-10T06:30:30.385Z,24.80
2023-05-10T06:32:58.045Z,23.67
2023-05-10T06:35:25.538Z,23.58
2023-05-10T06:37:52.936Z,24.40
2023-05-10T06:40:20.618Z,21.73
2023-05-10T06:42:48.440Z,21.27
2023-05-10T06:45:16.509Z,20.23
2023-05-10T06:47:44.129Z,17.88
2023-05-10T06:50:12.559Z,18.05
2023-05-10T06:52:40.224Z,18.60
2023-05-10T06:55:07.982Z,14.80
2023-05-10T06:57:35.479Z,11.63
2023-05-10T07:00:05.159Z,12.10
2023-05-10T07:02:32.605Z,11.48
2023-05-10T07:05:14.762Z,12.40
2023-05-10T07:07:42.062Z,10.43
2023-05-10T07:10:09.685Z,9.73
2023-05-10T07:12:36.863Z,9.30
2023-05-10T07:15:04.275Z,9.40
2023-05-10T07:17:31.675Z,9.40
2023-05-10T07:19:59.309Z,10.15
2023-05-10T07:22:26.606Z,9.43
2023-05-10T07:24:53.695Z,8.95
2023-05-10T07:27:20.637Z,9.35
2023-05-10T07:29:47.853Z,9.27
2023-05-10T07:32:15.167Z,8.48
2023-05-10T07:34:42.354Z,7.27
2023-05-10T07:37:09.469Z,6.20
2023-05-10T07:39:36.350Z,7.00
2023-05-10T07:42:03.908Z,6.97
2023-05-10T07:44:31.296Z,7.97
2023-05-10T07:46:58.591Z,6.73
2023-05-10T07:49:25.908Z,7.80
2023-05-10T07:51:53.165Z,7.22
2023-05-10T07:54:20.432Z,7.47
2023-05-10T07:56:48.340Z,7.07
2023-05-10T07:59:18.928Z,6.80
2023-05-10T08:01:45.900Z,7.53
2023-05-10T08:04:13.010Z,7.75
2023-05-10T08:06:40.793Z,7.30
2023-05-10T08:09:07.686Z,7.57
2023-05-10T08:11:35.314Z,7.53
2023-05-10T08:14:02.719Z,7.82
2023-05-10T08:16:30.166Z,10.23
2023-05-10T08:18:57.357Z,8.73
2023-05-10T08:21:24.314Z,8.15
2023-05-10T08:23:51.232Z,7.60
2023-05-10T08:26:18.564Z,9.52
2023-05-10T08:28:45.712Z,10.32
2023-05-10T08:31:12.949Z,8.27
2023-05-10T08:33:41.534Z,8.57
2023-05-10T08:36:09.365Z,8.60
2023-05-10T08:38:36.315Z,8.30
2023-05-10T08:41:04.148Z,8.23
2023-05-10T08:43:31.740Z,10.63
2023-05-10T08:46:02.281Z,8.65
2023-05-10T08:48:30.907Z,8.00
2023-05-10T08:51:01.704Z,8.90
2023-05-10T08:53:31.820Z,8.30
2023-05-10T08:55:59.244Z,8.50
2023-05-10T08:58:26.952Z,9.10
2023-05-10T09:00:54.647Z,8.73
2023-05-10T09:03:22.051Z,8.43
2023-05-10T09:05:50.145Z,7.80
2023-05-10T09:08:18.335Z,7.97
2023-05-10T09:10:48.257Z,8.05
2023-05-10T09:13:16.631Z,8.40
2023-05-10T09:15:45.976Z,8.48
2023-05-10T09:18:13.607Z,8.65
2023-05-10T09:20:41.148Z,8.15
2023-05-10T09:23:08.338Z,7.60
2023-05-10T09:25:35.916Z,8.43
2023-05-10T09:28:03.101Z,8.18
2023-05-10T09:30:31.596Z,9.13
2023-05-10T09:33:00.741Z,8.60
2023-05-10T09:35:31.151Z,7.97
2023-05-10T09:38:00.629Z,8.37
2023-05-10T09:40:29.397Z,8.43
2023-05-10T09:43:18.047Z,7.35
2023-05-10T09:45:45.304Z,10.45
2023-05-10T09:48:12.678Z,9.05
2023-05-10T09:50:40.155Z,7.60
2023-05-10T09:53:07.729Z,7.95
2023-05-10T09:55:41.397Z,8.88
2023-05-10T09:58:11.626Z,7.28
2023-05-10T10:00:41.185Z,6.95
2023-05-10T10:03:16.188Z,7.23
2023-05-10T10:05:44.723Z,7.28
2023-05-10T10:08:12.846Z,9.15
2023-05-10T10:10:41.523Z,8.93
2023-05-10T10:13:09.202Z,7.13
2023-05-10T10:15:36.677Z,6.77
2023-05-10T10:18:07.841Z,6.65
2023-05-10T10:20:34.874Z,8.82
2023-05-10T10:23:02.065Z,8.40
2023-05-10T10:25:29.489Z,9.93
2023-05-10T10:28:10.562Z,6.67
2023-05-10T10:30:47.017Z,6.03
2023-05-10T10:33:31.896Z,6.28
2023-05-10T10:36:04.198Z,6.47
2023-05-10T10:38:49.203Z,4.95
2023-05-10T10:41:29.590Z,5.13
2023-05-10T10:44:27.796Z,4.97
2023-05-10T10:47:23.996Z,5.43
2023-05-10T10:49:52.267Z,5.80
2023-05-10T10:52:36.449Z,5.35
2023-05-10T10:55:03.967Z,5.30
2023-05-10T10:57:45.612Z,5.20
2023-05-10T11:00:28.195Z,4.80
2023-05-10T11:02:55.503Z,5.03
2023-05-10T11:05:25.884Z,4.68
2023-05-10T11:07:58.151Z,5.00
2023-05-10T11:10:26.693Z,4.82
2023-05-10T11:13:05.055Z,4.82
2023-05-10T11:15:39.954Z,4.80
2023-05-10T11:18:21.227Z,4.88
2023-05-10T11:20:52.771Z,4.90
2023-05-10T11:23:21.017Z,5.07
2023-05-10T11:25:50.661Z,4.88
2023-05-10T11:28:20.847Z,5.03
2023-05-10T11:30:48.441Z,4.80
2023-05-10T11:33:20.403Z,5.10
2023-05-10T11:35:47.743Z,5.93
2023-05-10T11:38:15.167Z,5.80
2023-05-10T11:40:42.809Z,4.90
2023-05-10T11:43:11.371Z,5.43
2023-05-10T11:45:39.027Z,5.50
2023-05-10T11:48:06.481Z,4.70
2023-05-10T11:50:34.046Z,4.53
2023-05-10T11:53:01.485Z,6.18
2023-05-10T11:55:28.436Z,4.13
2023-05-10T11:57:55.958Z,4.87
2023-05-10T12:00:23.491Z,3.85
2023-05-10T12:02:51.310Z,3.90
2023-05-10T12:05:18.789Z,4.40
2023-05-10T12:07:46.147Z,4.28
2023-05-10T12:10:19.089Z,4.47
2023-05-10T12:12:49.068Z,5.40
2023-05-10T12:15:21.047Z,4.50
2023-05-10T12:17:48.741Z,7.07
2023-05-10T12:20:17.116Z,4.43
2023-05-10T12:22:50.045Z,4.33
2023-05-10T12:25:17.687Z,4.70
2023-05-10T12:27:53.235Z,4.65
2023-05-10T12:30:22.138Z,5.28
2023-05-10T12:32:49.574Z,5.15
2023-05-10T12:35:17.301Z,5.07
2023-05-10T12:37:44.756Z,5.75
2023-05-10T12:40:12.602Z,5.15
2023-05-10T12:42:40.837Z,5.20
2023-05-10T12:45:09.463Z,6.00
2023-05-10T12:47:37.148Z,5.50
2023-05-10T12:50:04.765Z,6.00
2023-05-10T12:52:33.059Z,6.78
2023-05-10T12:55:01.023Z,6.78
2023-05-10T12:57:28.890Z,6.25
2023-05-10T12:59:56.646Z,6.23
2023-05-10T13:02:24.109Z,6.28
2023-05-10T13:04:51.502Z,7.15
2023-05-10T13:07:19.051Z,6.10
2023-05-10T13:09:46.357Z,6.10
2023-05-10T13:12:13.629Z,5.30
2023-05-10T13:14:41.666Z,5.95
2023-05-10T13:17:09.081Z,5.60
2023-05-10T13:19:36.476Z,5.75
2023-05-10T13:22:03.974Z,5.38
2023-05-10T13:24:31.268Z,5.37
2023-05-10T13:26:58.113Z,8.63
2023-05-10T13:29:25.125Z,7.75
2023-05-10T13:31:52.013Z,7.28
2023-05-10T13:34:21.427Z,7.00
2023-05-10T13:36:49.068Z,9.07
2023-05-10T13:39:16.052Z,6.63
2023-05-10T13:41:43.394Z,8.23
2023-05-10T13:44:10.519Z,10.00
2023-05-10T13:46:38.873Z,9.20
2023-05-10T13:49:06.031Z,11.03
2023-05-10T13:51:33.407Z,11.02
2023-05-10T13:54:00.297Z,9.20
2023-05-10T13:56:27.728Z,9.32
2023-05-10T13:58:55.004Z,9.18
2023-05-10T14:01:22.339Z,8.97
2023-05-10T14:03:49.774Z,8.57
2023-05-10T14:06:16.701Z,9.40
2023-05-10T14:08:43.540Z,9.25
2023-05-10T14:11:10.797Z,15.70
2023-05-10T14:13:38.185Z,9.73
2023-05-10T14:16:05.622Z,8.90
2023-05-10T14:18:32.912Z,10.57
2023-05-10T14:21:00.213Z,9.48
2023-05-10T14:23:27.316Z,9.43
2023-05-10T14:25:54.666Z,8.40
2023-05-10T14:28:23.563Z,9.57
2023-05-10T14:30:51.230Z,9.50
2023-05-10T14:33:18.898Z,9.10
2023-05-10T14:35:47.618Z,9.38
2023-05-10T14:38:15.131Z,9.17
2023-05-10T14:40:42.801Z,10.05
2023-05-10T14:43:10.222Z,9.50
2023-05-10T14:45:37.531Z,9.02
2023-05-10T14:48:05.860Z,8.80
2023-05-10T14:50:36.930Z,9.40
2023-05-10T14:53:04.939Z,9.10
2023-05-10T14:55:32.186Z,9.65
2023-05-10T14:57:59.746Z,7.43
2023-05-10T15:00:26.920Z,7.50
2023-05-10T15:02:54.569Z,7.27
2023-05-10T15:05:22.314Z,7.00
2023-05-10T15:07:50.261Z,7.28
2023-05-10T15:10:18.750Z,7.40
2023-05-10T15:12:46.023Z,7.43
2023-05-10T15:15:13.416Z,7.57
2023-05-10T15:17:40.279Z,6.75
2023-05-10T15:20:07.874Z,6.70
2023-05-10T15:22:35.146Z,7.70
2023-05-10T15:25:02.596Z,7.25
2023-05-10T15:27:29.891Z,7.37
2023-05-10T15:29:57.191Z,7.50
2023-05-10T15:32:24.424Z,7.65
2023-05-10T15:34:52.021Z,6.80
2023-05-10T15:37:19.268Z,7.18
2023-05-10T15:39:46.121Z,7.70
2023-05-10T15:42:13.515Z,7.32
2023-05-10T15:44:40.341Z,8.23
2023-05-10T15:47:07.739Z,7.13
2023-05-10T15:49:35.058Z,7.13
2023-05-10T15:52:02.074Z,7.03
2023-05-10T15:54:29.371Z,9.00
2023-05-10T15:56:56.494Z,7.68
2023-05-10T15:59:23.703Z,8.18
2023-05-10T16:01:51.147Z,7.15
2023-05-10T16:04:18.569Z,7.30
2023-05-10T16:06:45.439Z,7.47
2023-05-10T16:09:12.671Z,9.90
2023-05-10T16:11:39.993Z,7.95
2023-05-10T16:14:07.312Z,7.10
2023-05-10T16:16:34.936Z,6.63
2023-05-10T16:19:03.878Z,7.13
2023-05-10T16:21:34.617Z,8.07
2023-05-10T16:24:03.152Z,6.80
2023-05-10T16:26:30.621Z,6.80
2023-05-10T16:28:57.865Z,7.90
2023-05-10T16:31:24.775Z,7.22
2023-05-10T16:33:52.038Z,7.03
2023-05-10T16:36:19.293Z,8.02
2023-05-10T16:38:46.639Z,7.25
2023-05-10T16:41:14.008Z,6.40
2023-05-10T16:43:41.194Z,6.68
2023-05-10T16:46:12.160Z,6.55
2023-05-10T16:48:39.466Z,6.95
2023-05-10T16:51:06.423Z,7.00
2023-05-10T16:53:33.846Z,6.97
2023-05-10T16:56:01.279Z,6.75
2023-05-10T16:58:28.608Z,8.23
2023-05-10T17:00:55.698Z,7.32
2023-05-10T17:03:22.825Z,6.90
2023-05-10T17:05:49.942Z,10.50
2023-05-10T17:08:17.063Z,10.18
2023-05-10T17:10:43.946Z,20.98
2023-05-10T17:13:10.944Z,7.38
2023-05-10T17:15:39.187Z,7.95
2023-05-10T17:18:07.560Z,7.30
2023-05-10T17:20:34.673Z,7.07
2023-05-10T17:23:03.454Z,7.53
2023-05-10T17:25:30.637Z,7.20
2023-05-10T17:27:57.502Z,7.85
2023-05-10T17:30:27.692Z,6.93
2023-05-10T17:32:55.244Z,7.47
2023-05-10T17:35:22.458Z,7.10
2023-05-10T17:37:49.336Z,7.78
2023-05-10T17:40:16.382Z,7.20
2023-05-10T17:42:43.319Z,7.00
2023-05-10T17:45:10.719Z,7.07
2023-05-10T17:47:38.093Z,8.65
2023-05-10T17:50:06.077Z,6.88
2023-05-10T17:52:33.664Z,7.50
2023-05-10T17:55:00.910Z,7.17
2023-05-10T17:57:28.346Z,11.13
2023-05-10T17:59:55.987Z,13.60
2023-05-10T18:02:23.285Z,8.93
2023-05-10T18:04:50.649Z,8.07
2023-05-10T18:07:18.023Z,6.97
2023-05-10T18:09:45.392Z,8.13
2023-05-10T18:12:12.670Z,8.38
2023-05-10T18:14:41.478Z,9.27
2023-05-10T18:17:09.692Z,9.57
2023-05-10T18:19:37.013Z,10.07
2023-05-10T18:22:04.324Z,8.23
2023-05-10T18:24:39.164Z,9.52
2023-05-10T18:27:09.185Z,10.57
2023-05-10T18:29:36.998Z,12.60
2023-05-10T18:32:04.238Z,9.07
2023-05-10T18:34:31.072Z,8.18
2023-05-10T18:36:58.075Z,11.77
2023-05-10T18:39:25.035Z,8.10
2023-05-10T18:41:52.083Z,9.50
2023-05-10T18:44:19.497Z,7.17
2023-05-10T18:46:46.826Z,8.57
2023-05-10T18:49:14.090Z,7.85
2023-05-10T18:51:41.383Z,7.95
2023-05-10T18:54:08.690Z,7.97
2023-05-10T18:56:35.817Z,6.83
2023-05-10T18:59:03.714Z,23.33
2023-05-10T19:01:31.029Z,11.63
2023-05-10T19:03:58.139Z,8.13
2023-05-10T19:06:24.953Z,8.00
2023-05-10T19:08:52.239Z,8.10
2023-05-10T19:11:19.694Z,8.20
2023-05-10T19:13:46.510Z,8.20
2023-05-10T19:16:23.943Z,7.38
2023-05-10T19:18:51.325Z,7.70
2023-05-10T19:21:19.031Z,9.30
2023-05-10T19:23:46.609Z,8.40
2023-05-10T19:26:13.878Z,7.68
2023-05-10T19:28:41.248Z,7.82
2023-05-10T19:31:08.778Z,7.15
2023-05-10T19:33:36.625Z,7.67
2023-05-10T19:36:04.394Z,10.90
2023-05-10T19:38:31.653Z,11.55
2023-05-10T19:40:59.513Z,7.63
2023-05-10T19:43:27.709Z,8.43
2023-05-10T19:45:55.799Z,10.00
2023-05-10T19:48:23.003Z,8.35
2023-05-10T19:50:50.232Z,7.57
2023-05-10T19:53:17.438Z,7.68
2023-05-10T19:55:44.349Z,7.57
2023-05-10T19:58:11.886Z,7.73
2023-05-10T20:00:38.775Z,8.43
2023-05-10T20:03:07.707Z,9.00
2023-05-10T20:05:36.325Z,8.18
2023-05-10T20:08:03.592Z,9.35
2023-05-10T20:10:31.002Z,7.93
2023-05-10T20:12:59.048Z,7.82
2023-05-10T20:15:27.305Z,8.63
2023-05-10T20:17:54.415Z,8.60
2023-05-10T20:20:21.926Z,6.80
2023-05-10T20:22:49.419Z,8.43
2023-05-10T20:25:17.497Z,8.95
2023-05-10T20:27:45.040Z,9.80
2023-05-10T20:30:12.655Z,12.13
2023-05-10T20:32:39.967Z,10.63
2023-05-10T20:35:07.450Z,9.77
2023-05-10T20:37:34.821Z,10.50
2023-05-10T20:40:02.127Z,9.55
2023-05-10T20:42:29.415Z,10.07
2023-05-10T20:44:56.930Z,10.98
2023-05-10T20:47:24.432Z,9.80
2023-05-10T20:49:51.729Z,10.45
2023-05-10T20:52:18.555Z,10.90
2023-05-10T20:54:45.942Z,10.48
2023-05-10T20:57:13.246Z,10.25
2023-05-10T20:59:40.666Z,9.30
2023-05-10T21:02:07.946Z,8.77
2023-05-10T21:04:35.015Z,8.95
2023-05-10T21:07:02.334Z,8.40
2023-05-10T21:09:29.682Z,10.50
2023-05-10T21:11:57.001Z,11.03
2023-05-10T21:14:24.266Z,14.63
2023-05-10T21:16:51.616Z,12.13
2023-05-10T21:19:18.930Z,13.30
2023-05-10T21:21:46.475Z,12.38
2023-05-10T21:24:13.913Z,11.77
2023-05-10T21:26:41.212Z,11.02
2023-05-10T21:29:08.956Z,11.82
2023-05-10T21:31:36.548Z,9.70
2023-05-10T21:34:03.573Z,10.30
2023-05-10T21:36:30.395Z,17.73
2023-05-10T21:38:57.677Z,14.38
2023-05-10T21:41:24.582Z,13.07
2023-05-10T21:43:51.690Z,10.77
2023-05-10T21:46:19.531Z,19.13
2023-05-10T21:48:46.870Z,16.53
2023-05-10T21:51:14.575Z,12.20
2023-05-10T21:53:41.838Z,11.38
2023-05-10T21:56:09.057Z,11.05
2023-05-10T21:58:36.537Z,11.63
2023-05-10T22:01:03.919Z,11.47
2023-05-10T22:03:31.537Z,11.48
2023-05-10T22:05:58.731Z,11.65
2023-05-10T22:08:26.179Z,11.52
2023-05-10T22:10:53.402Z,18.50
2023-05-10T22:13:20.731Z,10.77
2023-05-10T22:15:47.596Z,12.82
2023-05-10T22:18:14.897Z,12.00
2023-05-10T22:20:43.591Z,12.10
2023-05-10T22:23:10.889Z,11.52
2023-05-10T22:25:38.194Z,11.30
2023-05-10T22:28:05.438Z,11.77
2023-05-10T22:30:33.275Z,11.93
2023-05-10T22:33:00.738Z,11.63
2023-05-10T22:35:27.994Z,11.65
2023-05-10T22:37:55.201Z,12.17
2023-05-10T22:40:22.802Z,11.20
2023-05-10T22:42:49.596Z,11.43
2023-05-10T22:45:16.914Z,11.82
2023-05-10T22:47:44.223Z,11.25
2023-05-10T22:50:14.018Z,11.87
2023-05-10T22:52:40.870Z,11.45
2023-05-10T22:55:08.077Z,11.60
2023-05-10T22:57:35.516Z,11.90
2023-05-10T23:00:04.443Z,12.25
2023-05-10T23:02:32.096Z,11.23
2023-05-10T23:04:59.309Z,11.13
2023-05-10T23:07:26.540Z,12.82
2023-05-10T23:09:53.701Z,12.88
2023-05-10T23:12:20.666Z,12.75
2023-05-10T23:14:47.939Z,10.27
2023-05-10T23:17:15.421Z,12.23
2023-05-10T23:19:42.652Z,11.65
2023-05-10T23:22:10.012Z,12.27
2023-05-10T23:24:37.373Z,11.68
2023-05-10T23:27:04.601Z,12.10
2023-05-10T23:29:32.573Z,13.32
2023-05-10T23:31:59.795Z,11.88
2023-05-10T23:34:27.021Z,13.18
2023-05-10T23:36:54.210Z,12.45
2023-05-10T23:39:21.716Z,10.90
2023-05-10T23:41:48.479Z,12.10
2023-05-10T23:44:15.493Z,12.88
2023-05-10T23:46:42.734Z,12.07
2023-05-10T23:49:09.625Z,11.07
2023-05-10T23:51:36.804Z,11.47
2023-05-10T23:54:04.321Z,12.57
2023-05-10T23:56:31.521Z,12.38
2023-05-10T23:58:58.317Z,11.55
